Time;durP1;ratioP1;P1;durP2;ratioP2;P2;SDS_P1;SDS_P2;PMS_P1;PMS_P2;Temp;Humidity;BMP_temperature;BMP_pressure;BME280_temperature;BME280_humidity;BME280_pressure;Samples;Min_cycle;Max_cycle;Signal;HPM_P1;HPM_P2
2021/11/09 00:02:20;;;;;;;36.44;15.46;;;;;;;1.96;95.72;100250.88;2321875;66;20371;-73
2021/11/09 00:05:25;;;;;;;68.55;16.02;;;;;;;1.99;95.85;100247.63;2325132;68;20308;-73
2021/11/09 00:08:34;;;;;;;46.26;16.35;;;;;;;1.99;95.82;100234.81;2323865;68;20283;-73
2021/11/09 00:11:38;;;;;;;49.01;15.18;;;;;;;1.97;95.63;100238.97;2324786;68;20320;-73
2021/11/09 00:14:41;;;;;;;36.16;13.61;;;;;;;1.96;95.66;100235.53;2324291;68;20324;-73
2021/11/09 00:17:44;;;;;;;40.39;14.36;;;;;;;1.95;95.69;100238.03;2322854;67;23775;-74
2021/11/09 00:20:47;;;;;;;40.91;14.45;;;;;;;1.94;95.82;100242.25;2325152;68;20323;-74
2021/11/09 00:23:50;;;;;;;25.58;13.50;;;;;;;1.90;95.60;100244.63;2325143;68;20733;-74
2021/11/09 00:26:53;;;;;;;31.83;14.18;;;;;;;1.89;95.81;100238.66;2326876;68;20660;-74
2021/11/09 00:29:55;;;;;;;56.46;15.01;;;;;;;1.90;95.82;100234.41;2325550;68;20776;-74
2021/11/09 00:32:59;;;;;;;42.14;13.10;;;;;;;1.88;95.87;100238.56;2319431;66;25074;-74
2021/11/09 00:36:03;;;;;;;26.74;13.06;;;;;;;1.84;95.82;100229.03;2317741;69;20364;-73
2021/11/09 00:39:07;;;;;;;28.05;12.49;;;;;;;1.88;96.17;100236.03;2317236;69;20292;-75
2021/11/09 00:42:10;;;;;;;29.29;12.76;;;;;;;1.86;96.11;100233.41;2317394;69;20422;-73
2021/11/09 00:45:14;;;;;;;21.83;12.15;;;;;;;1.86;96.24;100233.41;2315817;68;20299;-73
2021/11/09 00:48:17;;;;;;;22.10;12.40;;;;;;;1.91;96.45;100239.59;2318436;66;21565;-73
2021/11/09 00:51:21;;;;;;;33.64;12.55;;;;;;;1.98;96.51;100243.31;2318634;69;20303;-74
2021/11/09 00:54:24;;;;;;;30.45;10.18;;;;;;;2.02;96.60;100247.75;2318131;68;20343;-73
2021/11/09 00:57:27;;;;;;;25.10;11.19;;;;;;;2.01;96.45;100240.88;2317524;69;20292;-73
2021/11/09 01:00:31;;;;;;;26.71;9.65;;;;;;;2.02;96.56;100240.06;2316007;66;20492;-73
2021/11/09 01:03:34;;;;;;;27.51;9.84;;;;;;;2.02;96.58;100233.25;2318040;68;20929;-74
2021/11/09 01:06:37;;;;;;;26.56;9.55;;;;;;;2.01;96.60;100238.31;2319102;69;20276;-74
2021/11/09 01:09:40;;;;;;;20.92;9.57;;;;;;;2.05;96.84;100237.63;2318356;69;21426;-74
2021/11/09 01:12:44;;;;;;;20.92;9.14;;;;;;;2.08;96.77;100242.88;2317910;69;20452;-74
2021/11/09 01:15:50;;;;;;;29.13;9.76;;;;;;;2.09;96.84;100245.50;2315696;66;20852;-74
2021/11/09 01:18:57;;;;;;;21.98;9.21;;;;;;;2.13;96.86;100249.06;2318260;69;20296;-74
2021/11/09 01:22:01;;;;;;;22.70;9.63;;;;;;;2.16;96.83;100251.78;2316833;69;20359;-73
2021/11/09 01:25:05;;;;;;;22.44;9.90;;;;;;;2.17;96.71;100255.22;2317304;68;20292;-74
2021/11/09 01:28:08;;;;;;;30.64;9.46;;;;;;;2.15;96.69;100260.25;2313963;69;20924;-73
2021/11/09 01:31:11;;;;;;;21.29;9.10;;;;;;;2.12;96.71;100255.88;2311943;66;20401;-74
2021/11/09 01:34:14;;;;;;;24.31;10.30;;;;;;;2.13;96.76;100251.63;2313109;69;21026;-74
2021/11/09 01:37:16;;;;;;;16.64;9.24;;;;;;;2.12;96.78;100252.44;2319791;68;20299;-74
2021/11/09 01:40:23;;;;;;;19.29;9.99;;;;;;;2.15;96.98;100265.38;2318145;69;20328;-73
2021/11/09 01:43:28;;;;;;;34.17;9.96;;;;;;;2.18;97.05;100260.41;2317698;68;21005;-73
2021/11/09 01:46:31;;;;;;;18.39;9.14;;;;;;;2.17;96.88;100258.66;2310694;66;21204;-73
2021/11/09 01:49:34;;;;;;;19.16;9.36;;;;;;;2.15;96.86;100264.50;2312758;69;20288;-74
2021/11/09 01:52:38;;;;;;;23.20;8.91;;;;;;;2.07;96.63;100254.81;2317423;69;20324;-74
2021/11/09 01:55:42;;;;;;;18.66;8.68;;;;;;;2.07;96.74;100251.38;2317573;68;20767;-73
2021/11/09 01:58:45;;;;;;;28.67;9.89;;;;;;;2.04;96.70;100248.69;2318651;69;20288;-74
2021/11/09 02:01:48;;;;;;;18.17;9.79;;;;;;;2.05;96.91;100237.63;2315345;66;20916;-74
2021/11/09 02:04:50;;;;;;;13.46;8.69;;;;;;;2.09;97.05;100242.06;2318004;68;20465;-73
2021/11/09 02:07:57;;;;;;;17.24;9.14;;;;;;;2.14;97.18;100243.13;2317730;69;21146;-73
2021/11/09 02:10:59;;;;;;;17.84;9.59;;;;;;;2.19;97.28;100239.09;2317767;69;20284;-73
2021/11/09 02:14:03;;;;;;;18.76;9.93;;;;;;;2.24;97.26;100241.84;2318651;68;20356;-73
2021/11/09 02:17:05;;;;;;;27.50;10.79;;;;;;;2.25;97.04;100243.59;2315842;66;21622;-74
2021/11/09 02:20:10;;;;;;;22.85;11.06;;;;;;;2.25;96.98;100243.59;2318829;69;20295;-74
2021/11/09 02:23:13;;;;;;;47.45;11.29;;;;;;;2.25;96.88;100248.72;2318424;68;20894;-74
2021/11/09 02:26:20;;;;;;;21.56;11.16;;;;;;;2.25;96.98;100248.72;2318006;69;20280;-74
2021/11/09 02:29:23;;;;;;;18.84;10.91;;;;;;;2.23;96.79;100245.22;2318705;69;20777;-75
2021/11/09 02:32:25;;;;;;;20.15;11.00;;;;;;;2.23;96.98;100253.78;2315744;66;21573;-73
2021/11/09 02:35:28;;;;;;;25.90;11.76;;;;;;;2.25;97.05;100244.47;2317844;68;20823;-74
2021/11/09 02:38:31;;;;;;;35.30;12.09;;;;;;;2.27;97.01;100245.41;2316149;69;20292;-73
2021/11/09 02:41:34;;;;;;;32.74;13.07;;;;;;;2.28;96.87;100247.16;2319911;69;20764;-74
2021/11/09 02:44:36;;;;;;;31.44;11.56;;;;;;;2.29;97.03;100248.91;2317534;68;20322;-74
2021/11/09 02:48:01;;;;;;;17.79;11.77;;;;;;;2.30;96.92;100260.03;2315245;66;21687;-73
2021/11/09 02:51:18;;;;;;;21.20;11.69;;;;;;;2.32;97.03;100260.97;2317133;69;20333;-74
2021/11/09 02:54:25;;;;;;;52.71;11.36;;;;;;;2.34;97.09;100255.13;2318984;68;20308;-74
2021/11/09 02:57:38;;;;;;;31.05;11.55;;;;;;;2.33;96.75;100243.09;2322468;68;20640;-73
2021/11/09 03:00:57;;;;;;;32.34;12.13;;;;;;;2.27;96.64;100253.09;2316234;67;21870;-74
2021/11/09 03:07:25;;;;;;;38.01;11.66;;;;;;;2.22;96.58;100259.72;2320387;69;20280;-73
2021/11/09 03:10:33;;;;;;;;;;;;;;;2.23;96.67;100258.03;2318451;69;20582;-74
2021/11/09 03:13:37;;;;;;;20.92;10.71;;;;;;;2.20;96.68;100248.53;2319127;68;20523;-73
2021/11/09 03:16:42;;;;;;;19.89;11.65;;;;;;;2.22;96.91;100246.03;2318119;66;21777;-73
2021/11/09 03:19:58;;;;;;;27.05;12.80;;;;;;;2.24;96.91;100254.66;2319584;69;20284;-74
2021/11/09 03:46:31;;;;;;;26.69;11.95;;;;;;;2.30;96.98;100257.47;2317045;66;22117;-73
2021/11/09 03:49:35;;;;;;;33.56;13.00;;;;;;;2.30;96.94;100260.91;2319688;69;20288;-74
2021/11/09 03:52:47;;;;;;;37.71;13.52;;;;;;;2.28;96.85;100265.09;2318984;69;20313;-74
2021/11/09 03:58:54;;;;;;;25.27;12.75;;;;;;;2.26;96.88;100268.41;2318470;69;20288;-74
2021/11/09 04:05:03;;;;;;;28.96;13.81;;;;;;;2.27;97.09;100267.59;2318323;68;20369;-74
2021/11/09 04:08:57;;;;;;;27.74;12.40;;;;;;;2.32;97.18;100264.41;2318000;69;20344;-74
2021/11/09 04:14:42;;;;;;;37.19;14.90;;;;;;;2.31;96.91;100272.03;2318056;68;20304;-73
2021/11/09 04:18:10;;;;;;;30.89;14.39;;;;;;;2.34;97.10;100262.81;2316920;66;20323;-74
2021/11/09 04:21:28;;;;;;;22.67;12.68;;;;;;;2.37;97.11;100267.19;2317632;69;20296;-74
2021/11/09 04:32:00;;;;;;;23.98;13.11;;;;;;;2.40;96.84;100265.63;2309833;67;21167;-74
2021/11/09 04:49:09;;;;;;;30.27;12.02;;;;;;;2.47;96.39;100281.25;2317215;69;21325;-73
2021/11/09 05:08:39;;;;;;;15.23;7.47;;;;;;;2.20;95.64;100293.78;2317372;69;20314;-74
2021/11/09 05:11:42;;;;;;;15.70;6.96;;;;;;;2.12;95.17;100298.53;2318457;69;20808;-74
2021/11/09 05:14:44;;;;;;;19.55;8.02;;;;;;;2.01;94.97;100302.34;2318147;68;20269;-74
2021/11/09 05:17:47;;;;;;;14.98;7.18;;;;;;;2.01;95.33;100312.59;2315510;66;23306;-74
2021/11/09 05:20:50;;;;;;;15.94;7.72;;;;;;;1.92;94.85;100312.16;2318683;69;20772;-74
2021/11/09 05:23:53;;;;;;;11.15;6.95;;;;;;;1.83;94.65;100322.00;2318179;68;20331;-74
2021/11/09 05:26:55;;;;;;;11.85;5.94;;;;;;;1.80;94.84;100318.50;2318283;69;20315;-74
2021/11/09 05:29:58;;;;;;;11.96;6.11;;;;;;;1.71;94.43;100322.31;2318019;69;20309;-73
2021/11/09 05:33:01;;;;;;;11.90;6.11;;;;;;;1.69;94.90;100318.81;2317510;67;21085;-74
2021/11/09 05:36:05;;;;;;;10.31;5.19;;;;;;;1.70;95.05;100315.44;2316302;69;20384;-74
2021/11/09 05:39:19;;;;;;;10.96;4.97;;;;;;;1.63;94.84;100308.31;2315061;69;20300;-74
2021/11/09 05:42:22;;;;;;;7.53;4.65;;;;;;;1.57;94.76;100316.53;2316615;69;20814;-74
2021/11/09 05:45:25;;;;;;;9.35;4.84;;;;;;;1.50;94.73;100314.53;2314331;67;21048;-74
2021/11/09 05:48:28;;;;;;;9.52;4.07;;;;;;;1.46;94.77;100308.41;2316609;69;20327;-74
2021/11/09 05:51:32;;;;;;;10.01;4.01;;;;;;;1.38;94.65;100314.81;2314868;69;20325;-75
2021/11/09 05:54:34;;;;;;;7.35;3.79;;;;;;;1.31;94.41;100312.78;2320109;68;20415;-74
2021/11/09 05:57:37;;;;;;;6.66;3.85;;;;;;;1.24;94.38;100314.97;2316095;69;20373;-74
2021/11/09 06:00:40;;;;;;;6.57;3.63;;;;;;;1.23;94.53;100316.66;2314642;66;22018;-74
2021/11/09 06:07:08;;;;;;;4.66;2.96;;;;;;;1.22;94.54;100322.56;2309965;69;20310;-74
2021/11/09 06:10:11;;;;;;;8.27;3.75;;;;;;;1.19;94.46;100325.88;2310825;69;20297;-75
2021/11/09 06:16:24;;;;;;;4.32;3.38;;;;;;;1.21;94.53;100326.81;2311558;67;22375;-74
2021/11/09 06:19:27;;;;;;;6.03;2.96;;;;;;;1.17;94.31;100330.03;2316131;69;20296;-74
2021/11/09 06:22:31;;;;;;;3.60;3.06;;;;;;;1.12;94.10;100318.72;2316602;69;20829;-74
2021/11/09 06:25:34;;;;;;;7.05;3.50;;;;;;;1.08;93.96;100329.59;2316258;68;20320;-74
2021/11/09 06:28:40;;;;;;;7.07;3.65;;;;;;;1.06;93.95;100331.19;2316805;69;20792;-74
2021/11/09 06:31:42;;;;;;;5.38;3.44;;;;;;;1.05;93.94;100339.66;2316579;67;22467;-74
2021/11/09 06:34:45;;;;;;;4.86;3.38;;;;;;;1.08;93.93;100344.06;2317640;68;20304;-74
2021/11/09 06:37:48;;;;;;;17.79;4.10;;;;;;;1.07;93.84;100340.59;2318526;69;20660;-74
2021/11/09 06:40:51;;;;;;;20.18;4.06;;;;;;;1.03;93.69;100341.28;2317679;69;20712;-74
2021/11/09 06:43:53;;;;;;;11.24;4.39;;;;;;;0.98;93.70;100345.28;2317595;69;20175;-74
2021/11/09 06:46:56;;;;;;;16.42;4.97;;;;;;;0.93;93.83;100344.19;2311437;67;20292;-74
2021/11/09 06:50:00;;;;;;;12.43;5.39;;;;;;;0.94;94.05;100356.19;2317780;69;20276;-74
2021/11/09 06:53:04;;;;;;;12.50;6.05;;;;;;;0.94;94.34;100358.72;2319513;68;20333;-74
2021/11/09 06:56:06;;;;;;;14.66;6.88;;;;;;;0.99;94.61;100367.50;2318222;69;20334;-74
2021/11/09 06:59:09;;;;;;;14.45;7.45;;;;;;;1.07;94.99;100370.41;2317617;69;20288;-74
2021/11/09 07:02:12;;;;;;;20.05;8.99;;;;;;;1.11;95.13;100370.66;2316866;66;20704;-74
2021/11/09 07:05:17;;;;;;;24.49;8.14;;;;;;;1.18;95.36;100377.81;2318592;68;20316;-74
2021/11/09 07:08:20;;;;;;;28.88;12.49;;;;;;;1.21;95.29;100380.53;2318868;69;20365;-74
2021/11/09 07:11:22;;;;;;;25.04;11.98;;;;;;;1.21;95.26;100385.63;2317992;69;20331;-74
2021/11/09 07:14:25;;;;;;;28.96;13.64;;;;;;;1.27;95.43;100386.75;2318464;68;20743;-74
2021/11/09 07:17:28;;;;;;;21.09;9.75;;;;;;;1.34;95.46;100381.13;2316643;66;20657;-74
2021/11/09 07:20:31;;;;;;;23.34;10.64;;;;;;;1.39;95.17;100382.22;2318362;69;20787;-74
2021/11/09 07:23:34;;;;;;;18.14;9.52;;;;;;;1.40;95.10;100391.66;2318922;68;20288;-74
2021/11/09 07:26:37;;;;;;;17.51;9.07;;;;;;;1.48;95.11;100398.91;2324583;68;20279;-74
2021/11/09 07:29:45;;;;;;;24.08;10.36;;;;;;;1.48;94.65;100398.91;2318635;69;20401;-74
2021/11/09 07:32:47;;;;;;;30.44;13.45;;;;;;;1.55;94.74;100399.19;2316233;67;20651;-74
2021/11/09 07:35:50;;;;;;;34.25;15.04;;;;;;;1.63;94.83;100393.63;2318207;69;20284;-74
2021/11/09 07:38:54;;;;;;;31.65;15.35;;;;;;;1.68;94.71;100387.03;2318736;69;20328;-74
2021/11/09 07:41:56;;;;;;;29.94;14.09;;;;;;;1.74;94.69;100387.31;2318632;69;20872;-74
2021/11/09 07:44:59;;;;;;;27.45;14.09;;;;;;;1.78;94.64;100384.09;2317140;68;20280;-74
2021/11/09 07:48:02;;;;;;;29.31;14.43;;;;;;;1.77;94.33;100389.13;2318829;69;24369;-74
2021/11/09 07:51:05;;;;;;;28.54;13.39;;;;;;;1.80;94.42;100387.63;2317705;69;20326;-74
2021/11/09 07:54:07;;;;;;;26.89;14.63;;;;;;;1.88;94.57;100382.84;2318170;68;20749;-74
2021/11/09 07:57:12;;;;;;;29.09;15.94;;;;;;;1.99;94.55;100381.66;2317402;69;21059;-74
2021/11/09 08:00:22;;;;;;;40.15;20.58;;;;;;;2.06;94.40;100393.06;2316778;69;20276;-74
2021/11/09 08:03:34;;;;;;;30.52;18.06;;;;;;;2.15;94.28;100396.00;2319143;69;21416;-74
2021/11/09 08:09:48;;;;;;;29.15;13.43;;;;;;;2.28;93.96;100394.88;2317903;69;20296;-74
2021/11/09 08:12:51;;;;;;;23.49;12.21;;;;;;;2.35;93.84;100397.81;2318706;68;20384;-74
2021/11/09 08:15:53;;;;;;;20.92;11.80;;;;;;;2.36;93.49;100388.44;2315673;67;21141;-74
2021/11/09 08:18:56;;;;;;;23.77;12.46;;;;;;;2.43;93.40;100386.19;2313704;69;20293;-74
2021/11/09 08:21:59;;;;;;;27.15;13.19;;;;;;;2.43;93.03;100387.88;2318395;68;20304;-74
2021/11/09 08:25:02;;;;;;;27.95;11.70;;;;;;;2.45;92.73;100387.94;2318278;68;20310;-74
2021/11/09 08:28:05;;;;;;;24.73;13.00;;;;;;;2.48;92.72;100391.53;2317961;69;20308;-74
2021/11/09 08:31:09;;;;;;;19.11;11.39;;;;;;;2.55;92.71;100388.44;2316306;66;20364;-74
2021/11/09 08:34:12;;;;;;;22.56;11.41;;;;;;;2.63;92.59;100389.63;2318589;68;20756;-74
2021/11/09 08:37:15;;;;;;;17.71;10.86;;;;;;;2.75;92.79;100390.97;2318294;69;20377;-74
2021/11/09 08:40:21;;;;;;;19.02;10.65;;;;;;;2.84;92.65;100394.78;2316451;69;20297;-74
2021/11/09 08:43:27;;;;;;;20.26;10.70;;;;;;;2.96;92.55;100391.88;2316918;68;20326;-75
2021/11/09 08:46:34;;;;;;;21.66;11.18;;;;;;;3.12;92.51;100398.53;2315069;66;22990;-74
2021/11/09 08:49:37;;;;;;;18.55;10.71;;;;;;;3.36;92.46;100399.53;2317073;69;20310;-75
2021/11/09 08:52:40;;;;;;;19.45;11.65;;;;;;;3.64;92.21;100394.69;2316745;69;20292;-75
2021/11/09 09:05:48;;;;;;;26.27;12.64;;;;;;;4.33;90.28;100376.75;2314542;68;20679;-75
2021/11/09 09:08:51;;;;;;;25.27;12.79;;;;;;;4.48;90.01;100381.53;2314736;69;20425;-75
2021/11/09 09:11:54;;;;;;;20.50;12.23;;;;;;;4.61;89.56;100383.72;2314558;69;20292;-75
2021/11/09 09:14:57;;;;;;;15.24;9.06;;;;;;;4.70;89.30;100378.03;2315135;68;20341;-75
2021/11/09 09:18:00;;;;;;;13.63;8.40;;;;;;;4.74;88.68;100380.78;2313491;66;22608;-75
2021/11/09 09:21:11;;;;;;;15.04;8.07;;;;;;;4.66;87.85;100379.59;2314912;69;20296;-75
2021/11/09 09:30:34;;;;;;;17.89;10.89;;;;;;;4.52;87.67;100368.00;2313984;69;32076;-74
2021/11/09 09:56:55;;;;;;;21.89;11.65;;;;;;;7.09;81.80;100364.66;2314488;69;20314;-75
2021/11/09 09:59:58;;;;;;;20.49;11.77;;;;;;;7.23;81.18;100363.31;2315497;69;20372;-75
2021/11/09 10:03:00;;;;;;;22.81;11.95;;;;;;;7.28;80.10;100368.56;2312839;66;20338;-75
2021/11/09 10:06:04;;;;;;;21.45;11.30;;;;;;;7.33;80.24;100360.94;2315218;69;20308;-75
2021/11/09 10:09:06;;;;;;;18.61;10.80;;;;;;;7.31;80.31;100358.31;2315196;69;20883;-76
2021/11/09 10:12:35;;;;;;;16.23;8.40;;;;;;;7.30;80.71;100361.75;2314667;69;21181;-75
2021/11/09 10:15:44;;;;;;;18.47;9.16;;;;;;;7.33;80.64;100360.94;2313553;66;20973;-76
2021/11/09 10:18:47;;;;;;;15.69;7.60;;;;;;;7.37;81.27;100358.47;2315817;69;20268;-75
2021/11/09 10:21:50;;;;;;;14.45;7.91;;;;;;;7.43;81.56;100356.03;2311091;69;20445;-75
2021/11/09 10:25:12;;;;;;;13.60;7.01;;;;;;;7.53;81.63;100347.66;2316263;68;20359;-76
2021/11/09 10:28:18;;;;;;;20.41;8.46;;;;;;;7.64;81.37;100341.84;2316090;69;20280;-76
2021/11/09 10:31:21;;;;;;;17.66;8.41;;;;;;;7.72;80.74;100343.78;2313246;66;22049;-75
2021/11/09 10:34:29;;;;;;;14.96;8.56;;;;;;;7.80;80.21;100334.47;2316483;68;20318;-76
2021/11/09 10:37:34;;;;;;;21.16;9.40;;;;;;;7.90;79.93;100343.31;2311001;69;20353;-76
2021/11/09 10:40:48;;;;;;;13.89;8.11;;;;;;;8.01;79.64;100344.41;2315513;69;20339;-76
2021/11/09 10:44:06;;;;;;;12.75;5.88;;;;;;;8.08;79.52;100343.72;2315708;68;20280;-76
2021/11/09 10:47:21;;;;;;;6.74;3.60;;;;;;;8.18;78.67;100339.59;2313831;66;22800;-76
2021/11/09 10:50:31;;;;;;;5.06;2.99;;;;;;;8.27;77.13;100332.03;2315222;69;20288;-76
2021/11/09 10:53:43;;;;;;;6.59;2.25;;;;;;;8.33;75.47;100333.84;2315487;68;20288;-76
2021/11/09 10:56:57;;;;;;;5.28;2.34;;;;;;;8.39;73.63;100334.88;2316227;69;20726;-77
2021/11/09 11:00:17;;;;;;;2.89;1.69;;;;;;;8.51;73.04;100335.97;2315491;69;20295;-76
2021/11/09 11:06:41;;;;;;;5.15;1.25;;;;;;;8.73;71.75;100319.97;2315514;69;20353;-76
2021/11/09 11:09:59;;;;;;;5.16;1.33;;;;;;;8.84;70.92;100320.16;2316724;69;20707;-77
2021/11/09 11:13:17;;;;;;;2.81;1.14;;;;;;;8.92;69.16;100318.56;2315292;68;20985;-76
2021/11/09 11:16:21;;;;;;;2.15;1.23;;;;;;;9.02;67.92;100312.72;2315702;66;23870;-77
2021/11/09 11:19:28;;;;;;;3.34;1.30;;;;;;;9.09;67.53;100315.41;2319046;69;20959;-77
2021/11/09 11:22:31;;;;;;;4.15;2.69;;;;;;;9.21;67.69;100312.16;2318323;69;20321;-77
2021/11/09 11:25:35;;;;;;;3.84;1.33;;;;;;;9.23;66.45;100305.28;2318567;68;20296;-77
2021/11/09 11:28:40;;;;;;;3.84;2.15;;;;;;;9.34;66.49;100297.69;2318477;68;20320;-77
2021/11/09 11:31:44;;;;;;;5.32;1.56;;;;;;;9.44;66.40;100294.38;2315527;66;36442;-77
2021/11/09 11:34:47;;;;;;;4.46;1.19;;;;;;;9.55;66.40;100290.22;2316744;68;20765;-77
2021/11/09 11:37:50;;;;;;;3.56;1.25;;;;;;;9.60;66.15;100282.50;2312575;69;20332;-77
2021/11/09 11:40:56;;;;;;;4.68;1.46;;;;;;;9.58;64.64;100284.19;2318280;69;20284;-77
2021/11/09 11:44:01;;;;;;;7.47;1.35;;;;;;;9.58;64.46;100277.28;2318888;69;20159;-77
2021/11/09 11:47:16;;;;;;;4.86;2.08;;;;;;;9.59;64.50;100265.19;2316448;66;23316;-77
2021/11/09 11:50:19;;;;;;;7.78;2.24;;;;;;;9.69;65.77;100257.56;2317827;69;20156;-76
2021/11/09 11:53:43;;;;;;;3.94;1.89;;;;;;;9.77;65.05;100261.97;2318701;68;20168;-77
2021/11/09 11:56:46;;;;;;;4.80;1.95;;;;;;;9.81;63.54;100251.66;2317370;69;20156;-77
2021/11/09 11:59:48;;;;;;;5.71;1.67;;;;;;;9.91;63.38;100248.31;2318057;69;20312;-77
2021/11/09 12:02:51;;;;;;;2.80;1.17;;;;;;;10.05;63.43;100253.66;2316026;66;23455;-77
2021/11/09 12:05:57;;;;;;;3.08;1.05;;;;;;;10.14;62.96;100253.78;2317732;69;20143;-77
2021/11/09 12:08:59;;;;;;;3.74;1.16;;;;;;;10.33;62.89;100251.41;2317298;69;20139;-77
2021/11/09 12:12:27;;;;;;;4.19;1.49;;;;;;;10.39;62.12;100254.06;2312879;69;20152;-77
2021/11/09 12:15:53;;;;;;;4.50;1.69;;;;;;;10.45;61.28;100251.53;2312631;66;34187;-77
2021/11/09 12:18:56;;;;;;;5.09;1.34;;;;;;;10.52;61.00;100233.44;2318907;69;20165;-77
2021/11/09 12:22:11;;;;;;;4.49;1.45;;;;;;;10.62;61.40;100229.22;2318702;69;20159;-77
2021/11/09 12:25:23;;;;;;;3.84;2.00;;;;;;;10.67;61.74;100230.09;2319094;68;20193;-78
2021/11/09 12:28:39;;;;;;;2.30;1.49;;;;;;;10.64;60.57;100224.03;2319703;69;20143;-78
2021/11/09 12:31:43;;;;;;;7.69;1.27;;;;;;;10.74;60.89;100218.03;2316536;67;23182;-78
2021/11/09 12:35:03;;;;;;;4.91;1.39;;;;;;;10.72;60.38;100224.94;2318813;68;20155;-78
2021/11/09 12:38:34;;;;;;;5.63;1.65;;;;;;;10.76;61.04;100219.78;2319712;69;20362;-77
2021/11/09 12:41:54;;;;;;;6.99;1.85;;;;;;;10.80;61.05;100207.72;2308870;69;20217;-78
2021/11/09 12:44:57;;;;;;;9.69;1.46;;;;;;;10.86;61.11;100197.34;2315665;68;20207;-77
2021/11/09 12:48:06;;;;;;;3.78;1.24;;;;;;;10.89;60.62;100200.84;2317053;66;31319;-78
2021/11/09 12:51:12;;;;;;;;;;;;;;;10.90;60.45;100205.16;2320622;69;20672;-78
2021/11/09 12:54:19;;;;;;;2.94;1.20;;;;;;;10.97;61.14;100203.50;2318964;68;20111;-78
2021/11/09 12:57:22;;;;;;;5.14;1.21;;;;;;;10.95;60.45;100209.53;2318796;69;20163;-78
2021/11/09 13:00:29;;;;;;;3.26;1.19;;;;;;;10.88;60.38;100199.09;2317947;67;23344;-78
2021/11/09 13:03:36;;;;;;;6.66;1.74;;;;;;;10.85;60.27;100206.88;2319207;68;20164;-78
2021/11/09 13:10:22;;;;;;;3.81;1.00;;;;;;;10.89;61.89;100205.16;2319200;69;20187;-78
2021/11/09 13:13:25;;;;;;;6.03;1.31;;;;;;;10.86;60.99;100206.00;2317781;68;20216;-77
2021/11/09 13:16:28;;;;;;;2.81;1.30;;;;;;;10.82;60.41;100208.59;2315549;66;20252;-78
2021/11/09 13:19:37;;;;;;;3.53;1.90;;;;;;;10.70;60.48;100205.88;2324101;68;20198;-78
2021/11/09 13:22:54;;;;;;;4.15;1.29;;;;;;;10.68;61.21;100211.06;2319340;69;20273;-77
2021/11/09 13:25:59;;;;;;;1.74;1.08;;;;;;;10.69;62.12;100215.41;2319553;69;20156;-77
2021/11/09 13:29:07;;;;;;;3.00;1.20;;;;;;;10.69;61.50;100198.94;2317639;69;20175;-77
2021/11/09 13:32:11;;;;;;;3.62;1.10;;;;;;;10.65;61.01;100210.19;2316580;66;23057;-76
2021/11/09 13:35:28;;;;;;;4.86;1.20;;;;;;;10.64;61.30;100193.72;2317735;68;20155;-76
2021/11/09 13:38:36;;;;;;;2.50;1.00;;;;;;;10.61;62.24;100185.91;2317101;69;20176;-76
2021/11/09 13:41:38;;;;;;;3.97;1.11;;;;;;;10.56;62.34;100188.44;2317237;69;20148;-76
2021/11/09 13:44:42;;;;;;;2.89;1.17;;;;;;;10.53;61.66;100190.16;2317367;68;20840;-76
2021/11/09 13:47:45;;;;;;;4.59;1.73;;;;;;;10.47;62.18;100182.31;2316461;66;24447;-76
2021/11/09 13:50:51;;;;;;;2.49;1.24;;;;;;;10.40;62.20;100178.78;2318321;69;20155;-76
2021/11/09 13:54:08;;;;;;;2.26;0.91;;;;;;;10.41;61.85;100179.66;2317122;68;20177;-76
2021/11/09 13:57:11;;;;;;;3.76;1.00;;;;;;;10.40;61.40;100177.91;2317597;69;20271;-76
2021/11/09 14:00:33;;;;;;;3.53;0.95;;;;;;;10.38;61.42;100171.84;2315220;69;20183;-76
2021/11/09 14:04:01;;;;;;;2.16;0.70;;;;;;;10.40;61.65;100177.91;2317621;68;20257;-76
2021/11/09 14:17:09;;;;;;;1.20;0.60;;;;;;;10.34;60.00;100170.09;2310086;66;21178;-76
2021/11/09 14:20:18;;;;;;;1.49;1.09;;;;;;;10.28;58.55;100170.91;2310895;69;20186;-76
2021/11/09 14:23:28;;;;;;;;;;;;;;;10.25;58.53;100160.50;2312063;69;20663;-76
2021/11/09 14:26:31;;;;;;;2.44;0.70;;;;;;;10.22;58.76;100153.53;2312647;69;20060;-76
2021/11/09 14:29:37;;;;;;;1.15;0.51;;;;;;;10.17;58.95;100144.81;2311967;69;20184;-76
2021/11/09 14:32:41;;;;;;;1.13;0.60;;;;;;;10.11;58.63;100155.13;2309156;66;22781;-77
2021/11/09 14:35:43;;;;;;;0.96;0.47;;;;;;;10.12;59.05;100153.41;2310538;69;20659;-76
2021/11/09 14:38:46;;;;;;;0.81;0.40;;;;;;;10.09;58.81;100150.78;2311974;69;20533;-74
2021/11/09 14:41:53;;;;;;;1.92;0.60;;;;;;;10.05;58.64;100147.28;2309868;69;20582;-74
2021/11/09 14:48:29;;;;;;;0.96;0.40;;;;;;;10.04;58.48;100142.94;2310055;66;21265;-74
2021/11/09 14:51:34;;;;;;;1.45;0.71;;;;;;;10.02;58.47;100136.88;2310223;69;20140;-75
2021/11/09 14:54:37;;;;;;;1.26;0.50;;;;;;;9.96;58.91;100145.47;2310027;69;20319;-74
2021/11/09 14:57:41;;;;;;;2.13;0.47;;;;;;;9.93;58.77;100144.56;2310715;69;20320;-74
2021/11/09 15:00:43;;;;;;;1.52;0.60;;;;;;;9.89;59.11;100137.63;2307728;66;22036;-75
2021/11/09 15:04:05;;;;;;;0.70;0.40;;;;;;;9.80;58.79;100140.97;2309118;69;20782;-75
2021/11/09 15:07:31;;;;;;;2.85;0.80;;;;;;;9.72;58.64;100134.84;2308864;69;20341;-75
2021/11/09 15:11:48;;;;;;;3.31;0.94;;;;;;;9.63;59.26;100132.13;2309547;69;20253;-74
2021/11/09 15:27:59;;;;;;;2.83;0.76;;;;;;;9.29;59.71;100117.91;2317115;69;21283;-74
2021/11/09 15:31:07;;;;;;;2.50;0.85;;;;;;;9.21;59.79;100120.41;2314023;66;22363;-74
2021/11/09 15:40:48;;;;;;;2.63;0.89;;;;;;;8.95;61.53;100138.19;2307026;69;20349;-75
2021/11/09 15:43:52;;;;;;;2.96;0.80;;;;;;;8.89;61.86;100130.34;2315886;68;21291;-74
2021/11/09 15:46:56;;;;;;;2.03;0.86;;;;;;;8.87;61.94;100137.22;2312784;66;21585;-74
2021/11/09 15:49:59;;;;;;;1.83;0.88;;;;;;;8.82;61.86;100141.47;2316874;69;21175;-74
2021/11/09 15:53:03;;;;;;;4.93;1.69;;;;;;;8.73;62.61;100141.31;2315212;68;20361;-74
2021/11/09 15:56:06;;;;;;;8.36;3.42;;;;;;;8.67;62.96;100144.69;2317665;69;21274;-74
2021/11/09 15:59:09;;;;;;;5.43;3.53;;;;;;;8.55;63.13;100139.31;2314757;69;20310;-74
2021/11/09 16:02:12;;;;;;;4.14;1.51;;;;;;;8.42;63.82;100142.53;2312648;66;21385;-74
2021/11/09 16:05:15;;;;;;;2.71;1.60;;;;;;;8.30;63.97;100137.16;2315598;68;20411;-74
2021/11/09 16:08:19;;;;;;;4.25;1.66;;;;;;;8.14;65.57;100139.47;2315082;69;20324;-74
2021/11/09 16:11:22;;;;;;;4.57;1.61;;;;;;;7.97;65.38;100133.13;2315515;69;20401;-73
2021/11/09 16:14:25;;;;;;;4.65;2.19;;;;;;;7.85;65.65;100131.19;2314817;68;20304;-74
2021/11/09 16:17:28;;;;;;;4.50;2.46;;;;;;;7.73;66.49;100128.41;2312971;66;22361;-74
2021/11/09 16:20:31;;;;;;;9.88;4.46;;;;;;;7.63;67.16;100130.75;2314314;69;20351;-74
2021/11/09 16:23:34;;;;;;;9.64;3.50;;;;;;;7.55;67.12;100125.47;2315368;68;20412;-74
2021/11/09 16:26:36;;;;;;;13.05;5.89;;;;;;;7.45;67.76;100124.41;2311198;69;20375;-74
2021/11/09 16:29:54;;;;;;;13.59;6.50;;;;;;;7.40;68.16;100127.75;2315538;69;20310;-74
2021/11/09 16:33:04;;;;;;;26.81;13.56;;;;;;;7.34;68.43;100133.63;2314015;68;21691;-74
2021/11/09 16:39:22;;;;;;;7.64;4.49;;;;;;;7.20;69.24;100148.00;2315267;69;20440;-74
2021/11/09 16:42:31;;;;;;;9.00;3.64;;;;;;;7.05;70.20;100152.81;2315316;69;20371;-74
2021/11/09 16:45:42;;;;;;;6.80;2.64;;;;;;;6.91;70.80;100158.53;2313203;67;22876;-74
2021/11/09 16:48:54;;;;;;;6.61;2.60;;;;;;;6.72;71.84;100156.38;2315277;69;21205;-74
2021/11/09 16:52:00;;;;;;;2.79;1.66;;;;;;;6.58;72.82;100162.91;2309517;69;20696;-74
2021/11/09 16:59:04;;;;;;;4.82;2.16;;;;;;;6.31;74.95;100161.44;2314336;69;20304;-74
2021/11/09 18:21:32;;;;;;;5.24;2.22;;;;;;;4.06;83.86;100201.84;2315098;69;20868;-75
2021/11/09 18:24:35;;;;;;;5.57;2.38;;;;;;;3.96;83.83;100194.66;2315552;68;20299;-75
2021/11/09 18:27:41;;;;;;;3.06;1.91;;;;;;;3.87;84.10;100181.47;2315281;69;21059;-75
2021/11/09 18:30:46;;;;;;;4.13;2.28;;;;;;;3.82;84.44;100177.88;2312723;69;23244;-74
2021/11/09 18:33:50;;;;;;;5.86;2.91;;;;;;;3.81;84.38;100174.44;2314809;68;20314;-75
2021/11/09 18:36:54;;;;;;;8.14;4.74;;;;;;;3.79;84.46;100152.09;2315665;69;20352;-75